sensor_id;sensor_type;location;lat;lon;timestamp;pressure;altitude;pressure_sealevel;temperature;humidity
68137;BME280;54939;50.826;9.030;2023-05-20T00:00:26;99163.66;;;19.74;46.13
68137;BME280;54939;50.826;9.030;2023-05-20T00:00:56;99168.03;;;19.75;45.52
68137;BME280;54939;50.826;9.030;2023-05-20T00:01:26;99164.50;;;19.75;45.95
68137;BME280;54939;50.826;9.030;2023-05-20T00:01:58;99163.66;;;19.74;46.13
68137;BME280;54939;50.826;9.030;2023-05-20T00:02:28;99163.66;;;19.74;46.17
68137;BME280;54939;50.826;9.030;2023-05-20T00:02:58;99167.38;;;19.73;45.22
68137;BME280;54939;50.826;9.030;2023-05-20T00:03:29;99165.31;;;19.75;46.21
68137;BME280;54939;50.826;9.030;2023-05-20T00:03:59;99163.47;;;19.76;46.06
68137;BME280;54939;50.826;9.030;2023-05-20T00:04:30;99164.28;;;19.76;45.93
68137;BME280;54939;50.826;9.030;2023-05-20T00:05:00;99166.34;;;19.74;45.61
68137;BME280;54939;50.826;9.030;2023-05-20T00:05:30;99163.66;;;19.74;46.17
68137;BME280;54939;50.826;9.030;2023-05-20T00:06:01;99162.63;;;19.75;45.66
68137;BME280;54939;50.826;9.030;2023-05-20T00:06:31;99159.06;;;19.75;46.38
68137;BME280;54939;50.826;9.030;2023-05-20T00:07:01;99163.00;;;19.72;45.75
68137;BME280;54939;50.826;9.030;2023-05-20T00:07:32;99162.81;;;19.74;46.48
68137;BME280;54939;50.826;9.030;2023-05-20T00:08:03;99163.66;;;19.74;46.53
68137;BME280;54939;50.826;9.030;2023-05-20T00:08:36;99167.19;;;19.75;46.08
68137;BME280;54939;50.826;9.030;2023-05-20T00:09:06;99159.06;;;19.75;46.25
68137;BME280;54939;50.826;9.030;2023-05-20T00:09:38;99160.94;;;19.74;46.27
68137;BME280;54939;50.826;9.030;2023-05-20T00:10:08;99168.03;;;19.75;46.60
68137;BME280;54939;50.826;9.030;2023-05-20T00:10:38;99167.19;;;19.75;45.39
68137;BME280;54939;50.826;9.030;2023-05-20T00:11:10;99161.78;;;19.75;46.33
68137;BME280;54939;50.826;9.030;2023-05-20T00:11:40;99163.66;;;19.74;46.82
68137;BME280;54939;50.826;9.030;2023-05-20T00:12:10;99165.31;;;19.75;46.06
68137;BME280;54939;50.826;9.030;2023-05-20T00:12:40;99162.63;;;19.75;46.20
68137;BME280;54939;50.826;9.030;2023-05-20T00:13:11;99157.19;;;19.75;46.38
68137;BME280;54939;50.826;9.030;2023-05-20T00:13:41;99160.09;;;19.74;45.62
68137;BME280;54939;50.826;9.030;2023-05-20T00:14:11;99159.25;;;19.73;46.36
68137;BME280;54939;50.826;9.030;2023-05-20T00:14:41;99163.66;;;19.74;46.64
68137;BME280;54939;50.826;9.030;2023-05-20T00:15:11;99160.09;;;19.74;46.14
68137;BME280;54939;50.826;9.030;2023-05-20T00:15:42;99157.41;;;19.74;46.26
68137;BME280;54939;50.826;9.030;2023-05-20T00:16:12;99160.09;;;19.74;46.61
68137;BME280;54939;50.826;9.030;2023-05-20T00:16:43;99155.53;;;19.74;46.26
68137;BME280;54939;50.826;9.030;2023-05-20T00:17:13;99155.72;;;19.73;45.94
68137;BME280;54939;50.826;9.030;2023-05-20T00:17:43;99157.41;;;19.74;46.56
68137;BME280;54939;50.826;9.030;2023-05-20T00:18:13;99164.69;;;19.73;46.04
68137;BME280;54939;50.826;9.030;2023-05-20T00:18:43;99153.00;;;19.73;45.97
68137;BME280;54939;50.826;9.030;2023-05-20T00:19:13;99158.22;;;19.74;46.33
68137;BME280;54939;50.826;9.030;2023-05-20T00:19:44;99158.22;;;19.74;46.55
68137;BME280;54939;50.826;9.030;2023-05-20T00:20:14;99156.56;;;19.73;45.63
68137;BME280;54939;50.826;9.030;2023-05-20T00:20:44;99152.81;;;19.74;46.43
68137;BME280;54939;50.826;9.030;2023-05-20T00:21:14;99163.66;;;19.74;45.36
68137;BME280;54939;50.826;9.030;2023-05-20T00:21:44;99154.69;;;19.74;46.00
68137;BME280;54939;50.826;9.030;2023-05-20T00:22:15;99156.56;;;19.73;46.07
68137;BME280;54939;50.826;9.030;2023-05-20T00:22:45;99160.94;;;19.74;46.23
68137;BME280;54939;50.826;9.030;2023-05-20T00:23:15;99153.84;;;19.73;46.59
68137;BME280;54939;50.826;9.030;2023-05-20T00:23:45;99154.69;;;19.74;46.43
68137;BME280;54939;50.826;9.030;2023-05-20T00:24:15;99154.69;;;19.74;46.28
68137;BME280;54939;50.826;9.030;2023-05-20T00:24:46;99162.81;;;19.74;45.69
68137;BME280;54939;50.826;9.030;2023-05-20T00:25:16;99156.56;;;19.73;46.27
68137;BME280;54939;50.826;9.030;2023-05-20T00:25:46;99158.44;;;19.73;45.80
68137;BME280;54939;50.826;9.030;2023-05-20T00:26:16;99154.69;;;19.74;46.46
68137;BME280;54939;50.826;9.030;2023-05-20T00:26:46;99158.22;;;19.74;46.08
68137;BME280;54939;50.826;9.030;2023-05-20T00:27:16;99153.00;;;19.73;46.42
68137;BME280;54939;50.826;9.030;2023-05-20T00:27:47;99153.84;;;19.73;46.15
68137;BME280;54939;50.826;9.030;2023-05-20T00:28:17;99153.00;;;19.73;46.27
68137;BME280;54939;50.826;9.030;2023-05-20T00:28:48;99154.69;;;19.74;46.53
68137;BME280;54939;50.826;9.030;2023-05-20T00:29:19;99153.00;;;19.73;45.61
68137;BME280;54939;50.826;9.030;2023-05-20T00:29:50;99147.59;;;19.73;46.40
68137;BME280;54939;50.826;9.030;2023-05-20T00:30:20;99153.84;;;19.73;45.86
68137;BME280;54939;50.826;9.030;2023-05-20T00:30:51;99153.00;;;19.73;46.38
68137;BME280;54939;50.826;9.030;2023-05-20T00:31:21;99158.44;;;19.73;46.10
68137;BME280;54939;50.826;9.030;2023-05-20T00:31:51;99154.69;;;19.74;45.69
68137;BME280;54939;50.826;9.030;2023-05-20T00:32:21;99148.44;;;19.73;46.39
68137;BME280;54939;50.826;9.030;2023-05-20T00:32:51;99152.16;;;19.72;46.37
68137;BME280;54939;50.826;9.030;2023-05-20T00:33:22;99153.84;;;19.73;45.72
68137;BME280;54939;50.826;9.030;2023-05-20T00:33:52;99153.00;;;19.73;45.98
68137;BME280;54939;50.826;9.030;2023-05-20T00:34:22;99158.22;;;19.74;46.11
68137;BME280;54939;50.826;9.030;2023-05-20T00:34:56;99159.25;;;19.73;45.86
68137;BME280;54939;50.826;9.030;2023-05-20T00:35:27;99151.97;;;19.74;46.19
68137;BME280;54939;50.826;9.030;2023-05-20T00:35:57;99151.97;;;19.74;45.58
68137;BME280;54939;50.826;9.030;2023-05-20T00:36:27;99157.41;;;19.74;45.92
68137;BME280;54939;50.826;9.030;2023-05-20T00:36:57;99154.88;;;19.72;46.29
68137;BME280;54939;50.826;9.030;2023-05-20T00:37:28;99147.59;;;19.73;46.00
68137;BME280;54939;50.826;9.030;2023-05-20T00:37:58;99155.72;;;19.73;45.50
68137;BME280;54939;50.826;9.030;2023-05-20T00:38:28;99153.00;;;19.73;46.42
68137;BME280;54939;50.826;9.030;2023-05-20T00:38:58;99154.69;;;19.74;45.66
68137;BME280;54939;50.826;9.030;2023-05-20T00:39:28;99147.59;;;19.73;45.21
68137;BME280;54939;50.826;9.030;2023-05-20T00:39:59;99151.34;;;19.72;45.80
68137;BME280;54939;50.826;9.030;2023-05-20T00:40:29;99154.88;;;19.72;45.30
68137;BME280;54939;50.826;9.030;2023-05-20T00:40:59;99146.75;;;19.72;45.72
68137;BME280;54939;50.826;9.030;2023-05-20T00:41:30;99151.34;;;19.72;45.47
68137;BME280;54939;50.826;9.030;2023-05-20T00:42:01;99146.75;;;19.72;46.23
68137;BME280;54939;50.826;9.030;2023-05-20T00:42:32;99151.34;;;19.72;45.21
68137;BME280;54939;50.826;9.030;2023-05-20T00:43:02;99147.78;;;19.71;46.04
68137;BME280;54939;50.826;9.030;2023-05-20T00:43:32;99142.38;;;19.71;45.16
68137;BME280;54939;50.826;9.030;2023-05-20T00:44:02;99143.22;;;19.72;46.23
68137;BME280;54939;50.826;9.030;2023-05-20T00:44:33;99143.00;;;19.73;46.12
68137;BME280;54939;50.826;9.030;2023-05-20T00:45:03;99144.03;;;19.72;45.42
68137;BME280;54939;50.826;9.030;2023-05-20T00:45:33;99137.59;;;19.73;46.11
68137;BME280;54939;50.826;9.030;2023-05-20T00:46:04;99140.50;;;19.72;45.04
68137;BME280;54939;50.826;9.030;2023-05-20T00:46:34;99143.00;;;19.73;46.01
68137;BME280;54939;50.826;9.030;2023-05-20T00:47:04;99137.59;;;19.73;45.89
68137;BME280;54939;50.826;9.030;2023-05-20T00:47:34;99147.59;;;19.73;45.70
68137;BME280;54939;50.826;9.030;2023-05-20T00:48:08;99135.91;;;19.72;45.19
68137;BME280;54939;50.826;9.030;2023-05-20T00:48:39;99131.34;;;19.73;45.43
68137;BME280;54939;50.826;9.030;2023-05-20T00:49:10;99141.34;;;19.72;45.97
68137;BME280;54939;50.826;9.030;2023-05-20T00:49:40;99134.25;;;19.71;45.21
68137;BME280;54939;50.826;9.030;2023-05-20T00:50:11;99140.50;;;19.72;45.75
68137;BME280;54939;50.826;9.030;2023-05-20T00:50:41;99136.75;;;19.73;45.25
68137;BME280;54939;50.826;9.030;2023-05-20T00:51:12;99139.47;;;19.73;44.91
68137;BME280;54939;50.826;9.030;2023-05-20T00:51:43;99136.94;;;19.71;45.34
68137;BME280;54939;50.826;9.030;2023-05-20T00:52:13;99135.91;;;19.72;45.13
68137;BME280;54939;50.826;9.030;2023-05-20T00:52:43;99135.91;;;19.72;45.26
68137;BME280;54939;50.826;9.030;2023-05-20T00:53:16;99135.91;;;19.72;45.24
68137;BME280;54939;50.826;9.030;2023-05-20T00:53:47;99136.75;;;19.73;45.63
68137;BME280;54939;50.826;9.030;2023-05-20T00:54:17;99132.19;;;19.73;45.81
68137;BME280;54939;50.826;9.030;2023-05-20T00:54:48;99133.00;;;19.74;45.17
68137;BME280;54939;50.826;9.030;2023-05-20T00:55:18;99134.88;;;19.73;45.37
68137;BME280;54939;50.826;9.030;2023-05-20T00:55:48;99133.22;;;19.72;46.19
68137;BME280;54939;50.826;9.030;2023-05-20T00:56:19;99132.19;;;19.73;45.96
68137;BME280;54939;50.826;9.030;2023-05-20T00:56:50;99136.56;;;19.74;45.85
68137;BME280;54939;50.826;9.030;2023-05-20T00:57:20;99133.00;;;19.74;46.36
68137;BME280;54939;50.826;9.030;2023-05-20T00:57:51;99133.22;;;19.72;45.21
68137;BME280;54939;50.826;9.030;2023-05-20T00:58:22;99136.75;;;19.73;45.86
68137;BME280;54939;50.826;9.030;2023-05-20T00:58:52;99134.88;;;19.73;45.53
68137;BME280;54939;50.826;9.030;2023-05-20T00:59:23;99132.19;;;19.73;45.13
68137;BME280;54939;50.826;9.030;2023-05-20T00:59:53;99138.63;;;19.72;45.89
68137;BME280;54939;50.826;9.030;2023-05-20T01:00:24;99134.88;;;19.73;45.42
68137;BME280;54939;50.826;9.030;2023-05-20T01:00:54;99138.63;;;19.72;45.40
68137;BME280;54939;50.826;9.030;2023-05-20T01:01:24;99133.22;;;19.72;45.55
68137;BME280;54939;50.826;9.030;2023-05-20T01:01:54;99134.03;;;19.73;45.13
68137;BME280;54939;50.826;9.030;2023-05-20T01:02:25;99132.38;;;19.72;45.08
68137;BME280;54939;50.826;9.030;2023-05-20T01:02:55;99135.06;;;19.72;45.65
68137;BME280;54939;50.826;9.030;2023-05-20T01:03:26;99132.38;;;19.72;45.08
68137;BME280;54939;50.826;9.030;2023-05-20T01:03:57;99134.25;;;19.71;45.73
68137;BME280;54939;50.826;9.030;2023-05-20T01:04:28;99134.25;;;19.71;45.22
68137;BME280;54939;50.826;9.030;2023-05-20T01:04:58;99133.22;;;19.72;46.41
68137;BME280;54939;50.826;9.030;2023-05-20T01:05:28;99136.75;;;19.73;45.93
68137;BME280;54939;50.826;9.030;2023-05-20T01:05:59;99132.59;;;19.70;45.90
68137;BME280;54939;50.826;9.030;2023-05-20T01:06:30;99138.44;;;19.74;45.62
68137;BME280;54939;50.826;9.030;2023-05-20T01:07:01;99127.78;;;19.72;45.49
68137;BME280;54939;50.826;9.030;2023-05-20T01:07:31;99137.59;;;19.73;45.21
68137;BME280;54939;50.826;9.030;2023-05-20T01:08:02;99134.03;;;19.73;45.71
68137;BME280;54939;50.826;9.030;2023-05-20T01:08:32;99133.22;;;19.72;45.12
68137;BME280;54939;50.826;9.030;2023-05-20T01:09:03;99135.91;;;19.72;45.97
68137;BME280;54939;50.826;9.030;2023-05-20T01:09:33;99136.94;;;19.71;45.11
68137;BME280;54939;50.826;9.030;2023-05-20T01:10:03;99132.38;;;19.72;45.77
68137;BME280;54939;50.826;9.030;2023-05-20T01:10:34;99128.81;;;19.71;45.75
68137;BME280;54939;50.826;9.030;2023-05-20T01:11:10;99131.53;;;19.71;45.22
68137;BME280;54939;50.826;9.030;2023-05-20T01:11:43;99128.81;;;19.71;46.26
68137;BME280;54939;50.826;9.030;2023-05-20T01:12:17;99131.53;;;19.71;45.42
68137;BME280;54939;50.826;9.030;2023-05-20T01:12:52;99132.38;;;19.72;45.66
68137;BME280;54939;50.826;9.030;2023-05-20T01:13:23;99118.63;;;19.73;45.78
68137;BME280;54939;50.826;9.030;2023-05-20T01:14:00;99129.47;;;19.73;46.45
68137;BME280;54939;50.826;9.030;2023-05-20T01:14:34;99126.94;;;19.72;45.13
68137;BME280;54939;50.826;9.030;2023-05-20T01:15:08;99128.63;;;19.73;45.59
68137;BME280;54939;50.826;9.030;2023-05-20T01:15:39;99126.13;;;19.71;45.08
68137;BME280;54939;50.826;9.030;2023-05-20T01:16:10;99118.81;;;19.72;45.57
68137;BME280;54939;50.826;9.030;2023-05-20T01:16:40;99128.81;;;19.71;45.22
68137;BME280;54939;50.826;9.030;2023-05-20T01:17:12;99128.03;;;19.71;45.63
68137;BME280;54939;50.826;9.030;2023-05-20T01:17:47;99118.00;;;19.71;46.06
68137;BME280;54939;50.826;9.030;2023-05-20T01:18:20;99129.66;;;19.72;45.40
68137;BME280;54939;50.826;9.030;2023-05-20T01:18:52;99114.47;;;19.71;45.40
68137;BME280;54939;50.826;9.030;2023-05-20T01:19:26;99127.78;;;19.72;46.23
68137;BME280;54939;50.826;9.030;2023-05-20T01:19:57;99124.25;;;19.72;45.51
68137;BME280;54939;50.826;9.030;2023-05-20T01:20:28;99124.25;;;19.72;45.39
68137;BME280;54939;50.826;9.030;2023-05-20T01:21:01;99116.13;;;19.72;45.21
68137;BME280;54939;50.826;9.030;2023-05-20T01:21:31;99109.88;;;19.71;45.19
68137;BME280;54939;50.826;9.030;2023-05-20T01:22:04;99121.75;;;19.70;45.72
68137;BME280;54939;50.826;9.030;2023-05-20T01:22:36;99120.94;;;19.70;45.14
68137;BME280;54939;50.826;9.030;2023-05-20T01:23:06;99106.34;;;19.71;45.31
68137;BME280;54939;50.826;9.030;2023-05-20T01:23:37;99110.94;;;19.70;45.20
68137;BME280;54939;50.826;9.030;2023-05-20T01:24:08;99110.94;;;19.70;45.44
68137;BME280;54939;50.826;9.030;2023-05-20T01:24:41;99110.94;;;19.70;45.15
68137;BME280;54939;50.826;9.030;2023-05-20T01:25:11;99114.66;;;19.69;44.99
68137;BME280;54939;50.826;9.030;2023-05-20T01:25:42;99121.75;;;19.70;45.66
68137;BME280;54939;50.826;9.030;2023-05-20T01:26:12;99111.75;;;19.71;45.22
68137;BME280;54939;50.826;9.030;2023-05-20T01:26:42;99105.50;;;19.70;45.30
68137;BME280;54939;50.826;9.030;2023-05-20T01:27:17;99106.34;;;19.71;45.79
68137;BME280;54939;50.826;9.030;2023-05-20T01:27:49;99109.88;;;19.71;45.95
68137;BME280;54939;50.826;9.030;2023-05-20T01:28:21;99110.69;;;19.72;45.27
68137;BME280;54939;50.826;9.030;2023-05-20T01:28:51;99111.53;;;19.72;45.34
68137;BME280;54939;50.826;9.030;2023-05-20T01:29:22;99106.34;;;19.71;45.37
68137;BME280;54939;50.826;9.030;2023-05-20T01:29:52;99105.50;;;19.70;45.78
68137;BME280;54939;50.826;9.030;2023-05-20T01:30:25;99109.88;;;19.71;45.11
68137;BME280;54939;50.826;9.030;2023-05-20T01:30:58;99108.22;;;19.70;45.35
68137;BME280;54939;50.826;9.030;2023-05-20T01:31:30;99110.94;;;19.70;45.60
68137;BME280;54939;50.826;9.030;2023-05-20T01:32:03;99115.50;;;19.70;45.17
68137;BME280;54939;50.826;9.030;2023-05-20T01:32:38;99114.47;;;19.71;45.34
68137;BME280;54939;50.826;9.030;2023-05-20T01:33:10;99113.63;;;19.70;45.59
68137;BME280;54939;50.826;9.030;2023-05-20T01:33:41;99110.94;;;19.70;45.74
68137;BME280;54939;50.826;9.030;2023-05-20T01:34:12;99117.19;;;19.71;45.24
68137;BME280;54939;50.826;9.030;2023-05-20T01:34:42;99110.94;;;19.70;45.44
68137;BME280;54939;50.826;9.030;2023-05-20T01:35:15;99112.56;;;19.71;46.16
68137;BME280;54939;50.826;9.030;2023-05-20T01:35:46;99118.00;;;19.71;45.39
68137;BME280;54939;50.826;9.030;2023-05-20T01:36:16;99118.00;;;19.71;45.77
68137;BME280;54939;50.826;9.030;2023-05-20T01:36:47;99117.19;;;19.71;45.24
68137;BME280;54939;50.826;9.030;2023-05-20T01:37:18;99126.94;;;19.72;45.25
68137;BME280;54939;50.826;9.030;2023-05-20T01:37:49;99118.22;;;19.70;45.24
68137;BME280;54939;50.826;9.030;2023-05-20T01:38:21;99124.47;;;19.70;45.59
68137;BME280;54939;50.826;9.030;2023-05-20T01:38:52;99117.19;;;19.71;45.29
68137;BME280;54939;50.826;9.030;2023-05-20T01:39:23;99130.91;;;19.69;45.65
68137;BME280;54939;50.826;9.030;2023-05-20T01:39:54;99130.09;;;19.69;45.38
68137;BME280;54939;50.826;9.030;2023-05-20T01:40:25;99132.78;;;19.69;45.19
68137;BME280;54939;50.826;9.030;2023-05-20T01:40:56;99130.91;;;19.69;45.40
68137;BME280;54939;50.826;9.030;2023-05-20T01:41:27;99132.59;;;19.70;45.45
68137;BME280;54939;50.826;9.030;2023-05-20T01:41:58;99134.47;;;19.70;45.27
68137;BME280;54939;50.826;9.030;2023-05-20T01:42:29;99130.91;;;19.69;45.70
68137;BME280;54939;50.826;9.030;2023-05-20T01:43:00;99126.34;;;19.70;45.87
68137;BME280;54939;50.826;9.030;2023-05-20T01:43:31;99127.38;;;19.69;45.63
68137;BME280;54939;50.826;9.030;2023-05-20T01:44:01;99125.50;;;19.69;45.25
68137;BME280;54939;50.826;9.030;2023-05-20T01:44:32;99124.66;;;19.69;45.10
68137;BME280;54939;50.826;9.030;2023-05-20T01:45:03;99127.38;;;19.69;45.22
68137;BME280;54939;50.826;9.030;2023-05-20T01:45:33;99124.84;;;19.67;45.16
68137;BME280;54939;50.826;9.030;2023-05-20T01:46:06;99126.53;;;19.68;45.18
68137;BME280;54939;50.826;9.030;2023-05-20T01:46:36;99120.09;;;19.69;45.36
68137;BME280;54939;50.826;9.030;2023-05-20T01:47:07;99117.56;;;19.67;45.33
68137;BME280;54939;50.826;9.030;2023-05-20T01:47:37;99109.44;;;19.67;46.15
68137;BME280;54939;50.826;9.030;2023-05-20T01:48:08;99118.41;;;19.68;45.45
68137;BME280;54939;50.826;9.030;2023-05-20T01:48:40;99119.25;;;19.69;45.78
68137;BME280;54939;50.826;9.030;2023-05-20T01:49:10;99118.41;;;19.68;45.57
68137;BME280;54939;50.826;9.030;2023-05-20T01:49:40;99109.44;;;19.67;45.34
68137;BME280;54939;50.826;9.030;2023-05-20T01:50:10;99115.06;;;19.66;45.92
68137;BME280;54939;50.826;9.030;2023-05-20T01:50:40;99118.59;;;19.66;45.42
68137;BME280;54939;50.826;9.030;2023-05-20T01:51:11;99111.31;;;19.67;45.30
68137;BME280;54939;50.826;9.030;2023-05-20T01:51:41;99111.31;;;19.67;45.99
68137;BME280;54939;50.826;9.030;2023-05-20T01:52:11;99108.41;;;19.69;45.53
68137;BME280;54939;50.826;9.030;2023-05-20T01:52:42;99108.59;;;19.67;45.30
68137;BME280;54939;50.826;9.030;2023-05-20T01:53:12;99118.41;;;19.68;45.76
68137;BME280;54939;50.826;9.030;2023-05-20T01:53:42;99108.59;;;19.67;45.39
68137;BME280;54939;50.826;9.030;2023-05-20T01:54:13;99110.28;;;19.68;45.82
68137;BME280;54939;50.826;9.030;2023-05-20T01:54:43;99107.56;;;19.68;46.03
68137;BME280;54939;50.826;9.030;2023-05-20T01:55:19;99105.91;;;19.67;45.30
68137;BME280;54939;50.826;9.030;2023-05-20T01:55:50;99105.06;;;19.66;45.11
68137;BME280;54939;50.826;9.030;2023-05-20T01:56:20;99107.78;;;19.66;45.23
68137;BME280;54939;50.826;9.030;2023-05-20T01:56:51;99114.88;;;19.67;45.12
68137;BME280;54939;50.826;9.030;2023-05-20T01:57:21;99104.03;;;19.67;45.16
68137;BME280;54939;50.826;9.030;2023-05-20T01:57:52;99110.28;;;19.68;46.00
68137;BME280;54939;50.826;9.030;2023-05-20T01:58:22;99107.97;;;19.65;45.35
68137;BME280;54939;50.826;9.030;2023-05-20T01:58:52;99108.59;;;19.67;45.33
68137;BME280;54939;50.826;9.030;2023-05-20T01:59:22;99099.66;;;19.66;45.80
68137;BME280;54939;50.826;9.030;2023-05-20T01:59:52;99105.06;;;19.66;45.32
68137;BME280;54939;50.826;9.030;2023-05-20T02:00:23;99099.66;;;19.66;45.79
68137;BME280;54939;50.826;9.030;2023-05-20T02:00:53;99097.97;;;19.65;45.38
68137;BME280;54939;50.826;9.030;2023-05-20T02:01:23;99098.81;;;19.66;45.64
68137;BME280;54939;50.826;9.030;2023-05-20T02:01:53;99096.94;;;19.66;45.18
68137;BME280;54939;50.826;9.030;2023-05-20T02:02:23;99099.66;;;19.66;45.37
68137;BME280;54939;50.826;9.030;2023-05-20T02:02:54;99108.59;;;19.67;45.12
68137;BME280;54939;50.826;9.030;2023-05-20T02:03:24;99100.47;;;19.67;45.23
68137;BME280;54939;50.826;9.030;2023-05-20T02:03:54;99111.31;;;19.67;45.47
68137;BME280;54939;50.826;9.030;2023-05-20T02:04:24;99105.91;;;19.67;45.15
68137;BME280;54939;50.826;9.030;2023-05-20T02:04:55;99100.47;;;19.67;46.01
68137;BME280;54939;50.826;9.030;2023-05-20T02:05:25;99101.31;;;19.67;45.40
68137;BME280;54939;50.826;9.030;2023-05-20T02:05:55;99096.94;;;19.66;45.30
68137;BME280;54939;50.826;9.030;2023-05-20T02:06:25;99101.31;;;19.67;45.33
68137;BME280;54939;50.826;9.030;2023-05-20T02:06:55;99098.81;;;19.66;45.25
68137;BME280;54939;50.826;9.030;2023-05-20T02:07:26;99104.03;;;19.67;45.28
68137;BME280;54939;50.826;9.030;2023-05-20T02:07:56;99101.31;;;19.67;45.09
68137;BME280;54939;50.826;9.030;2023-05-20T02:08:26;99094.22;;;19.66;45.23
68137;BME280;54939;50.826;9.030;2023-05-20T02:08:56;99093.19;;;19.67;45.74
68137;BME280;54939;50.826;9.030;2023-05-20T02:09:26;99102.34;;;19.66;45.40
68137;BME280;54939;50.826;9.030;2023-05-20T02:09:57;99101.31;;;19.67;45.27
68137;BME280;54939;50.826;9.030;2023-05-20T02:10:27;99100.47;;;19.67;45.55
68137;BME280;54939;50.826;9.030;2023-05-20T02:10:57;99105.06;;;19.66;45.22
68137;BME280;54939;50.826;9.030;2023-05-20T02:11:27;99098.81;;;19.66;45.49
68137;BME280;54939;50.826;9.030;2023-05-20T02:11:58;99101.31;;;19.67;45.64
68137;BME280;54939;50.826;9.030;2023-05-20T02:12:28;99099.66;;;19.66;45.35
68137;BME280;54939;50.826;9.030;2023-05-20T02:12:58;99097.78;;;19.67;45.93
68137;BME280;54939;50.826;9.030;2023-05-20T02:13:28;99104.03;;;19.67;45.45
68137;BME280;54939;50.826;9.030;2023-05-20T02:13:58;99101.50;;;19.66;45.25
68137;BME280;54939;50.826;9.030;2023-05-20T02:14:29;99098.81;;;19.66;45.49
68137;BME280;54939;50.826;9.030;2023-05-20T02:14:59;99101.50;;;19.66;45.25
68137;BME280;54939;50.826;9.030;2023-05-20T02:15:29;99099.84;;;19.65;45.39
68137;BME280;54939;50.826;9.030;2023-05-20T02:15:59;99099.00;;;19.64;45.18
68137;BME280;54939;50.826;9.030;2023-05-20T02:16:30;99103.38;;;19.65;45.07
68137;BME280;54939;50.826;9.030;2023-05-20T02:17:00;99101.50;;;19.66;45.24
68137;BME280;54939;50.826;9.030;2023-05-20T02:17:30;99099.00;;;19.64;45.20
68137;BME280;54939;50.826;9.030;2023-05-20T02:18:00;99099.00;;;19.64;45.08
68137;BME280;54939;50.826;9.030;2023-05-20T02:18:31;99101.72;;;19.64;45.26
68137;BME280;54939;50.826;9.030;2023-05-20T02:19:01;99093.81;;;19.63;45.38
68137;BME280;54939;50.826;9.030;2023-05-20T02:19:31;99099.00;;;19.64;45.38
68137;BME280;54939;50.826;9.030;2023-05-20T02:20:02;99096.28;;;19.64;45.48
68137;BME280;54939;50.826;9.030;2023-05-20T02:20:35;99105.25;;;19.65;45.24
68137;BME280;54939;50.826;9.030;2023-05-20T02:21:05;99109.84;;;19.64;45.47
68137;BME280;54939;50.826;9.030;2023-05-20T02:21:35;99102.53;;;19.65;45.22
68137;BME280;54939;50.826;9.030;2023-05-20T02:22:06;99099.84;;;19.65;45.29
68137;BME280;54939;50.826;9.030;2023-05-20T02:22:36;99096.53;;;19.63;45.11
68137;BME280;54939;50.826;9.030;2023-05-20T02:23:06;99097.13;;;19.65;45.53
68137;BME280;54939;50.826;9.030;2023-05-20T02:23:37;99099.00;;;19.64;45.44
68137;BME280;54939;50.826;9.030;2023-05-20T02:24:07;99105.25;;;19.65;45.15
68137;BME280;54939;50.826;9.030;2023-05-20T02:24:38;99096.28;;;19.64;45.55
68137;BME280;54939;50.826;9.030;2023-05-20T02:25:08;99100.88;;;19.64;45.14
68137;BME280;54939;50.826;9.030;2023-05-20T02:25:39;99096.28;;;19.64;45.37
68137;BME280;54939;50.826;9.030;2023-05-20T02:26:09;99110.91;;;19.63;45.29
68137;BME280;54939;50.826;9.030;2023-05-20T02:26:39;99100.06;;;19.63;45.26
68137;BME280;54939;50.826;9.030;2023-05-20T02:27:10;99104.41;;;19.64;45.69
68137;BME280;54939;50.826;9.030;2023-05-20T02:27:40;99096.28;;;19.64;45.68
68137;BME280;54939;50.826;9.030;2023-05-20T02:28:10;99099.22;;;19.63;45.32
68137;BME280;54939;50.826;9.030;2023-05-20T02:28:41;99095.47;;;19.64;45.13
68137;BME280;54939;50.826;9.030;2023-05-20T02:29:15;99102.78;;;19.63;45.59
68137;BME280;54939;50.826;9.030;2023-05-20T02:29:46;99100.88;;;19.64;45.20
68137;BME280;54939;50.826;9.030;2023-05-20T02:30:16;99095.47;;;19.64;45.17
68137;BME280;54939;50.826;9.030;2023-05-20T02:30:46;99102.53;;;19.65;45.67
68137;BME280;54939;50.826;9.030;2023-05-20T02:31:17;99100.88;;;19.64;45.37
68137;BME280;54939;50.826;9.030;2023-05-20T02:31:47;99107.97;;;19.65;45.56
68137;BME280;54939;50.826;9.030;2023-05-20T02:32:18;99108.81;;;19.65;45.70
68137;BME280;54939;50.826;9.030;2023-05-20T02:32:49;99107.97;;;19.65;45.31
68137;BME280;54939;50.826;9.030;2023-05-20T02:33:20;99099.00;;;19.64;45.55
68137;BME280;54939;50.826;9.030;2023-05-20T02:33:50;99108.81;;;19.65;45.36
68137;BME280;54939;50.826;9.030;2023-05-20T02:34:20;99102.53;;;19.65;45.11
68137;BME280;54939;50.826;9.030;2023-05-20T02:34:50;99104.41;;;19.64;45.10
68137;BME280;54939;50.826;9.030;2023-05-20T02:35:20;99100.06;;;19.63;45.08
68137;BME280;54939;50.826;9.030;2023-05-20T02:35:51;99100.88;;;19.64;45.17
68137;BME280;54939;50.826;9.030;2023-05-20T02:36:21;99101.94;;;19.63;45.25
68137;BME280;54939;50.826;9.030;2023-05-20T02:36:51;99100.06;;;19.63;45.13
68137;BME280;54939;50.826;9.030;2023-05-20T02:37:21;99099.22;;;19.63;45.11
68137;BME280;54939;50.826;9.030;2023-05-20T02:37:51;99099.22;;;19.63;45.07
68137;BME280;54939;50.826;9.030;2023-05-20T02:38:22;99099.22;;;19.63;45.04
68137;BME280;54939;50.826;9.030;2023-05-20T02:38:52;99104.66;;;19.63;45.11
68137;BME280;54939;50.826;9.030;2023-05-20T02:39:25;99089.22;;;19.63;45.06
68137;BME280;54939;50.826;9.030;2023-05-20T02:39:57;99095.69;;;19.62;45.09
68137;BME280;54939;50.826;9.030;2023-05-20T02:40:27;99092.13;;;19.62;45.48
68137;BME280;54939;50.826;9.030;2023-05-20T02:40:57;99097.56;;;19.62;45.16
68137;BME280;54939;50.826;9.030;2023-05-20T02:41:28;99100.25;;;19.62;45.17
68137;BME280;54939;50.826;9.030;2023-05-20T02:41:59;99096.72;;;19.61;45.05
68137;BME280;54939;50.826;9.030;2023-05-20T02:42:29;99102.97;;;19.62;45.05
68137;BME280;54939;50.826;9.030;2023-05-20T02:42:59;99094.84;;;19.62;45.34